createdAt,value
2017-10-10T00:00:16.944Z,8.20
2017-10-10T00:02:44.472Z,6.10
2017-10-10T00:05:12.022Z,5.70
2017-10-10T00:07:39.787Z,7.30
2017-10-10T00:10:07.319Z,6.00
2017-10-10T00:12:34.912Z,6.13
2017-10-10T00:15:02.446Z,5.78
2017-10-10T00:17:29.971Z,5.63
2017-10-10T00:19:58.291Z,6.03
2017-10-10T00:22:25.839Z,5.68
2017-10-10T00:24:53.371Z,6.43
2017-10-10T00:27:21.695Z,9.67
2017-10-10T00:29:49.219Z,7.10
2017-10-10T00:32:17.524Z,5.10
2017-10-10T00:34:45.150Z,6.50
2017-10-10T00:37:14.357Z,5.13
2017-10-10T00:39:41.887Z,4.80
2017-10-10T00:42:09.435Z,4.73
2017-10-10T00:44:36.968Z,5.30
2017-10-10T00:47:04.491Z,6.20
2017-10-10T00:49:32.040Z,6.83
2017-10-10T00:51:59.568Z,5.60
2017-10-10T00:54:27.087Z,4.70
2017-10-10T00:56:54.672Z,5.23
2017-10-10T00:59:22.202Z,5.20
2017-10-10T01:01:49.731Z,5.70
2017-10-10T01:04:17.295Z,4.87
2017-10-10T01:06:44.820Z,5.27
2017-10-10T01:09:12.557Z,5.37
2017-10-10T01:11:40.108Z,5.03
2017-10-10T01:14:07.631Z,5.33
2017-10-10T01:16:35.154Z,5.40
2017-10-10T01:19:02.730Z,5.50
2017-10-10T01:21:30.252Z,5.10
2017-10-10T01:23:57.776Z,5.30
2017-10-10T01:26:26.090Z,5.60
2017-10-10T01:28:53.608Z,5.57
2017-10-10T01:31:21.132Z,5.40
2017-10-10T01:33:48.680Z,4.50
2017-10-10T01:36:17.144Z,17.37
2017-10-10T01:38:44.673Z,6.13
2017-10-10T01:41:13.936Z,5.13
2017-10-10T01:43:41.479Z,5.70
2017-10-10T01:46:09.008Z,5.67
2017-10-10T01:48:36.575Z,4.80
2017-10-10T01:51:04.090Z,5.27
2017-10-10T01:53:31.615Z,5.37
2017-10-10T01:55:59.169Z,5.63
2017-10-10T01:58:26.692Z,5.67
2017-10-10T02:00:54.215Z,6.20
2017-10-10T02:03:21.793Z,6.07
2017-10-10T02:05:49.328Z,5.30
2017-10-10T02:08:16.851Z,4.97
2017-10-10T02:10:44.779Z,7.43
2017-10-10T02:13:12.307Z,5.53
2017-10-10T02:15:39.827Z,5.67
2017-10-10T02:18:08.148Z,5.20
2017-10-10T02:20:35.670Z,4.80
2017-10-10T02:23:03.960Z,5.37
2017-10-10T02:25:31.560Z,8.25
2017-10-10T02:27:59.088Z,5.90
2017-10-10T02:30:26.603Z,5.43
2017-10-10T02:32:54.153Z,7.83
2017-10-10T02:35:21.684Z,14.57
2017-10-10T02:37:49.211Z,8.40
2017-10-10T02:40:16.768Z,41.70
2017-10-10T02:42:44.291Z,14.10
2017-10-10T02:45:11.810Z,7.83
2017-10-10T02:47:39.400Z,11.80
2017-10-10T02:50:06.937Z,24.87
2017-10-10T02:52:34.476Z,22.53
2017-10-10T02:55:02.033Z,20.17
2017-10-10T02:57:29.559Z,13.80
2017-10-10T02:59:57.095Z,7.33
2017-10-10T03:02:24.644Z,7.77
2017-10-10T03:04:52.168Z,8.23
2017-10-10T03:07:19.696Z,14.48
2017-10-10T03:09:47.283Z,17.30
2017-10-10T03:12:17.588Z,14.15
2017-10-10T03:14:45.892Z,15.37
2017-10-10T03:17:14.647Z,7.53
2017-10-10T03:19:42.952Z,10.67
2017-10-10T03:22:10.484Z,7.07
2017-10-10T03:24:38.810Z,16.47
2017-10-10T03:27:06.343Z,19.00
2017-10-10T03:29:33.883Z,17.43
2017-10-10T03:32:01.487Z,9.83
2017-10-10T03:34:29.012Z,6.70
2017-10-10T03:36:57.303Z,13.83
2017-10-10T03:39:24.851Z,17.30
2017-10-10T03:41:53.139Z,11.63
2017-10-10T03:44:20.663Z,8.43
2017-10-10T03:46:48.215Z,7.10
2017-10-10T03:49:16.471Z,7.20
2017-10-10T03:51:43.997Z,5.73
2017-10-10T03:54:11.569Z,6.13
2017-10-10T03:56:39.088Z,5.70
2017-10-10T03:59:06.615Z,5.77
2017-10-10T04:01:34.158Z,5.60
2017-10-10T04:04:01.683Z,7.20
2017-10-10T04:06:29.975Z,6.00
2017-10-10T04:08:57.532Z,5.80
2017-10-10T04:11:25.068Z,5.87
2017-10-10T04:13:53.003Z,6.13
2017-10-10T04:16:20.579Z,5.70
2017-10-10T04:18:48.111Z,7.70
2017-10-10T04:21:16.383Z,10.07
2017-10-10T04:23:43.928Z,6.30
2017-10-10T04:26:11.448Z,6.00
2017-10-10T04:28:39.737Z,6.43
2017-10-10T04:31:07.288Z,13.53
2017-10-10T04:33:35.583Z,6.50
2017-10-10T04:36:03.115Z,6.20
2017-10-10T04:38:31.347Z,6.10
2017-10-10T04:40:58.984Z,7.00
2017-10-10T04:43:26.513Z,6.17
2017-10-10T04:45:54.073Z,6.80
2017-10-10T04:48:21.591Z,6.80
2017-10-10T04:50:49.124Z,8.10
2017-10-10T04:53:16.686Z,12.20
2017-10-10T04:55:44.216Z,8.30
2017-10-10T04:58:11.739Z,8.80
2017-10-10T05:00:39.309Z,9.53
2017-10-10T05:03:06.831Z,6.90
2017-10-10T05:05:34.359Z,8.67
2017-10-10T05:08:02.684Z,5.87
2017-10-10T05:10:30.212Z,7.20
2017-10-10T05:12:57.730Z,7.70
2017-10-10T05:15:25.743Z,6.93
2017-10-10T05:17:53.271Z,7.80
2017-10-10T05:20:20.796Z,7.50
2017-10-10T05:22:48.372Z,8.80
2017-10-10T05:25:16.408Z,6.80
2017-10-10T05:27:43.927Z,9.67
2017-10-10T05:30:11.488Z,7.82
2017-10-10T05:32:39.800Z,24.73
2017-10-10T05:35:07.323Z,8.20
2017-10-10T05:37:35.651Z,12.60
2017-10-10T05:40:03.176Z,11.73
2017-10-10T05:42:31.472Z,11.80
2017-10-10T05:45:00.114Z,11.03
2017-10-10T05:47:27.647Z,10.13
2017-10-10T05:49:55.185Z,17.13
2017-10-10T05:52:22.731Z,13.03
2017-10-10T05:54:50.259Z,13.27
2017-10-10T05:57:17.782Z,18.63
2017-10-10T05:59:45.340Z,9.43
2017-10-10T06:02:14.583Z,9.65
2017-10-10T06:04:42.148Z,11.30
2017-10-10T06:07:09.751Z,10.03
2017-10-10T06:09:38.047Z,13.83
2017-10-10T06:12:05.587Z,12.75
2017-10-10T06:14:33.148Z,14.07
2017-10-10T06:17:01.080Z,10.60
2017-10-10T06:19:28.611Z,11.13
2017-10-10T06:21:56.160Z,11.77
2017-10-10T06:24:23.688Z,13.00
2017-10-10T06:26:51.221Z,15.27
2017-10-10T06:29:18.791Z,9.63
2017-10-10T06:31:46.335Z,13.40
2017-10-10T06:34:16.260Z,14.87
2017-10-10T06:36:43.807Z,18.20
2017-10-10T06:39:11.331Z,15.83
2017-10-10T06:41:38.856Z,9.87
2017-10-10T06:44:06.416Z,10.07
2017-10-10T06:46:33.946Z,9.50
2017-10-10T06:49:01.480Z,12.77
2017-10-10T06:51:29.081Z,10.77
2017-10-10T06:53:56.615Z,12.27
2017-10-10T06:56:24.924Z,10.70
2017-10-10T06:58:52.479Z,13.40
2017-10-10T07:01:20.007Z,10.67
2017-10-10T07:03:48.315Z,11.70
2017-10-10T07:06:17.243Z,15.70
2017-10-10T07:08:44.778Z,10.13
2017-10-10T07:11:12.307Z,12.30
2017-10-10T07:13:40.660Z,17.50
2017-10-10T07:16:08.195Z,14.23
2017-10-10T07:18:36.117Z,19.53
2017-10-10T07:21:03.676Z,12.30
2017-10-10T07:23:31.975Z,13.38
2017-10-10T07:25:59.498Z,9.65
2017-10-10T07:28:27.060Z,17.07
2017-10-10T07:30:54.591Z,12.83
2017-10-10T07:33:22.112Z,9.80
2017-10-10T07:35:49.709Z,13.33
2017-10-10T07:38:17.235Z,11.97
2017-10-10T07:40:44.783Z,11.87
2017-10-10T07:43:12.349Z,10.70
2017-10-10T07:45:39.892Z,12.50
2017-10-10T07:48:07.427Z,13.82
2017-10-10T07:50:34.983Z,18.50
2017-10-10T07:53:02.511Z,10.73
2017-10-10T07:55:30.039Z,12.73
2017-10-10T07:57:57.632Z,10.80
2017-10-10T08:00:25.164Z,13.10
2017-10-10T08:02:52.697Z,11.20
2017-10-10T08:05:20.265Z,10.52
2017-10-10T08:07:47.804Z,14.03
2017-10-10T08:10:17.239Z,9.98
2017-10-10T08:12:45.564Z,11.43
2017-10-10T08:15:14.603Z,11.60
2017-10-10T08:17:42.140Z,10.40
2017-10-10T08:20:10.254Z,10.00
2017-10-10T08:22:37.803Z,12.80
2017-10-10T08:25:11.708Z,16.93
2017-10-10T08:27:40.980Z,11.13
2017-10-10T08:30:08.527Z,13.55
2017-10-10T08:32:36.226Z,11.93
2017-10-10T08:35:04.616Z,10.90
2017-10-10T08:37:32.175Z,8.63
2017-10-10T08:39:59.707Z,10.63
2017-10-10T08:42:27.300Z,12.48
2017-10-10T08:44:54.846Z,9.07
2017-10-10T08:47:22.395Z,9.88
2017-10-10T08:49:50.195Z,6.40
2017-10-10T08:52:17.728Z,10.03
2017-10-10T08:54:46.019Z,6.77
2017-10-10T08:57:14.574Z,6.25
2017-10-10T08:59:42.103Z,5.40
2017-10-10T09:02:09.636Z,6.00
2017-10-10T09:04:37.562Z,5.77
2017-10-10T09:07:05.268Z,4.87
2017-10-10T09:09:32.824Z,7.57
2017-10-10T09:12:00.392Z,8.70
2017-10-10T09:14:27.990Z,5.93
2017-10-10T09:16:55.627Z,8.63
2017-10-10T09:19:23.178Z,6.13
2017-10-10T09:21:51.500Z,5.50
2017-10-10T09:24:19.128Z,5.30
2017-10-10T09:26:46.740Z,4.70
2017-10-10T09:29:16.255Z,4.95
2017-10-10T09:31:43.779Z,6.23
2017-10-10T09:34:11.331Z,5.47
2017-10-10T09:36:38.867Z,7.00
2017-10-10T09:39:06.400Z,5.60
2017-10-10T09:41:33.967Z,5.00
2017-10-10T09:44:01.495Z,4.60
2017-10-10T09:46:29.024Z,5.10
2017-10-10T09:48:56.604Z,4.53
2017-10-10T09:51:24.933Z,6.80
2017-10-10T09:53:52.503Z,6.78
2017-10-10T09:56:20.089Z,4.97
2017-10-10T09:58:47.615Z,4.97
2017-10-10T10:01:16.388Z,4.70
2017-10-10T10:03:43.939Z,4.03
2017-10-10T10:06:11.468Z,5.03
2017-10-10T10:08:38.995Z,5.00
2017-10-10T10:11:06.579Z,6.20
2017-10-10T10:13:34.107Z,7.30
2017-10-10T10:16:01.647Z,5.40
2017-10-10T10:18:29.215Z,10.00
2017-10-10T10:20:56.750Z,5.27
2017-10-10T10:23:25.488Z,4.67
2017-10-10T10:25:53.047Z,4.80
2017-10-10T10:28:20.574Z,6.43
2017-10-10T10:30:48.101Z,4.10
2017-10-10T10:33:16.525Z,3.97
2017-10-10T10:35:44.047Z,6.50
2017-10-10T10:38:12.345Z,8.73
2017-10-10T10:40:39.907Z,4.57
2017-10-10T10:46:04.459Z,4.43
2017-10-10T10:48:31.992Z,4.03
2017-10-10T10:50:59.523Z,4.62
2017-10-10T10:53:27.433Z,4.00
2017-10-10T10:55:54.981Z,5.17
2017-10-10T10:58:22.528Z,4.10
2017-10-10T11:00:50.123Z,7.23
2017-10-10T11:03:17.661Z,4.37
2017-10-10T11:05:45.200Z,4.33
2017-10-10T11:08:13.798Z,6.77
2017-10-10T11:10:41.335Z,6.53
2017-10-10T11:13:08.870Z,8.90
2017-10-10T11:15:36.465Z,4.53
2017-10-10T11:18:04.148Z,4.63
2017-10-10T11:20:32.459Z,5.22
2017-10-10T11:23:00.031Z,7.73
2017-10-10T11:25:28.815Z,8.60
2017-10-10T11:27:56.586Z,5.60
2017-10-10T11:30:24.148Z,5.60
2017-10-10T11:32:51.679Z,5.30
2017-10-10T11:35:19.215Z,5.10
2017-10-10T11:37:46.791Z,5.30
2017-10-10T11:40:15.499Z,6.22
2017-10-10T11:42:43.032Z,10.23
2017-10-10T11:45:10.744Z,7.53
2017-10-10T11:47:38.295Z,6.30
2017-10-10T11:50:06.600Z,5.57
2017-10-10T11:52:34.174Z,5.00
2017-10-10T11:55:01.711Z,5.83
2017-10-10T11:57:29.235Z,9.37
2017-10-10T11:59:56.828Z,6.43
2017-10-10T12:02:24.374Z,4.75
2017-10-10T12:04:51.904Z,5.67
2017-10-10T12:07:19.475Z,5.70
2017-10-10T12:09:47.007Z,6.90
2017-10-10T12:12:26.739Z,6.30
2017-10-10T12:22:04.336Z,6.73
2017-10-10T12:24:32.702Z,11.83
2017-10-10T12:27:00.590Z,12.30
2017-10-10T12:29:28.143Z,8.40
2017-10-10T12:31:56.448Z,5.00
2017-10-10T12:34:24.032Z,5.27
2017-10-10T12:36:51.606Z,5.17
2017-10-10T12:39:19.152Z,7.93
2017-10-10T12:41:46.697Z,5.97
2017-10-10T12:44:16.395Z,4.12
2017-10-10T12:46:43.983Z,5.00
2017-10-10T12:49:11.544Z,6.20
2017-10-10T12:51:39.124Z,7.27
2017-10-10T12:54:06.680Z,5.63
2017-10-10T12:56:34.398Z,5.37
2017-10-10T12:59:01.973Z,5.40
2017-10-10T13:01:29.516Z,4.85
2017-10-10T13:03:57.064Z,8.27
2017-10-10T13:06:25.459Z,7.37
2017-10-10T13:08:52.995Z,7.60
2017-10-10T13:11:21.302Z,7.77
2017-10-10T13:13:48.863Z,6.97
2017-10-10T13:16:16.468Z,10.00
2017-10-10T13:18:44.003Z,6.80
2017-10-10T13:21:12.326Z,6.80
2017-10-10T13:23:39.899Z,6.40
2017-10-10T13:26:07.472Z,6.32
2017-10-10T13:28:36.000Z,6.73
2017-10-10T13:31:03.542Z,17.23
2017-10-10T13:33:31.075Z,14.53
2017-10-10T13:35:58.642Z,6.77
2017-10-10T13:38:26.166Z,5.97
2017-10-10T13:40:53.699Z,17.17
2017-10-10T13:43:21.265Z,5.90
2017-10-10T13:45:48.792Z,6.30
2017-10-10T13:48:16.475Z,6.72
2017-10-10T13:50:44.059Z,9.00
2017-10-10T13:53:11.592Z,8.07
2017-10-10T13:55:39.136Z,18.07
2017-10-10T13:58:06.701Z,11.90
2017-10-10T14:00:34.231Z,11.47
2017-10-10T14:03:01.771Z,13.50
2017-10-10T14:05:29.327Z,8.50
2017-10-10T14:07:56.872Z,11.77
2017-10-10T14:10:25.401Z,13.25
2017-10-10T14:12:53.181Z,18.80
2017-10-10T14:15:20.821Z,20.43
2017-10-10T14:17:48.372Z,9.27
2017-10-10T14:20:16.009Z,19.40
2017-10-10T14:22:43.571Z,12.53
2017-10-10T14:25:30.707Z,16.83
2017-10-10T14:27:58.616Z,14.87
2017-10-10T14:30:26.684Z,13.23
2017-10-10T14:32:54.235Z,7.27
2017-10-10T14:35:22.976Z,5.70
2017-10-10T14:37:50.523Z,13.10
2017-10-10T14:40:18.067Z,9.10
2017-10-10T14:42:45.623Z,6.73
2017-10-10T14:45:24.842Z,9.18
2017-10-10T14:50:42.236Z,6.27
2017-10-10T14:53:09.774Z,8.50
2017-10-10T14:55:37.349Z,7.80
2017-10-10T14:58:07.197Z,8.30
2017-10-10T15:00:36.189Z,7.47
2017-10-10T15:03:04.493Z,6.63
2017-10-10T15:05:32.063Z,6.13
2017-10-10T15:07:59.605Z,6.50
2017-10-10T15:10:27.135Z,9.63
2017-10-10T15:12:55.259Z,6.23
2017-10-10T15:15:22.786Z,6.13
2017-10-10T15:17:50.320Z,11.40
2017-10-10T15:20:18.651Z,13.33
2017-10-10T15:22:46.184Z,6.10
2017-10-10T15:25:15.532Z,11.15
2017-10-10T15:27:43.097Z,6.67
2017-10-10T15:30:10.634Z,7.10
2017-10-10T15:32:39.327Z,8.10
2017-10-10T15:35:06.921Z,6.37
2017-10-10T15:37:34.455Z,8.20
2017-10-10T15:40:01.984Z,5.97
2017-10-10T15:42:29.543Z,6.28
2017-10-10T15:44:57.071Z,7.67
2017-10-10T15:47:24.595Z,8.07
2017-10-10T15:49:52.176Z,13.80
2017-10-10T15:52:19.704Z,7.97
2017-10-10T15:54:48.162Z,6.40
2017-10-10T15:57:17.629Z,5.87
2017-10-10T15:59:45.265Z,7.33
2017-10-10T16:02:12.868Z,6.07
2017-10-10T16:04:40.439Z,5.62
2017-10-10T16:07:07.972Z,4.57
2017-10-10T16:09:36.307Z,6.00
2017-10-10T16:12:03.880Z,5.10
2017-10-10T16:14:31.407Z,5.53
2017-10-10T16:16:58.967Z,8.83
2017-10-10T16:19:26.547Z,10.93
2017-10-10T16:21:54.251Z,8.47
2017-10-10T16:24:22.578Z,10.60
2017-10-10T16:26:50.916Z,8.27
2017-10-10T16:29:18.523Z,9.50
2017-10-10T16:31:46.221Z,15.20
2017-10-10T16:34:16.697Z,12.73
2017-10-10T16:36:44.240Z,12.63
2017-10-10T16:39:11.779Z,10.20
2017-10-10T16:41:40.124Z,9.80
2017-10-10T16:44:07.664Z,18.30
2017-10-10T16:46:35.209Z,23.37
2017-10-10T16:49:02.792Z,10.10
2017-10-10T16:51:30.328Z,10.50
2017-10-10T16:53:58.024Z,9.83
2017-10-10T16:56:25.596Z,9.97
2017-10-10T16:58:53.168Z,11.23
2017-10-10T17:01:20.731Z,9.68
2017-10-10T17:03:48.456Z,10.10
2017-10-10T17:06:17.219Z,10.43
2017-10-10T17:08:44.759Z,12.20
2017-10-10T17:11:14.012Z,10.47
2017-10-10T17:13:41.707Z,18.05
2017-10-10T17:16:09.239Z,29.20
2017-10-10T17:18:36.836Z,20.43
2017-10-10T17:21:05.335Z,19.37
2017-10-10T17:23:32.990Z,16.40
2017-10-10T17:26:01.355Z,14.70
2017-10-10T17:28:29.684Z,12.40
2017-10-10T17:30:57.992Z,13.60
2017-10-10T17:33:25.572Z,12.70
2017-10-10T17:35:54.154Z,10.50
2017-10-10T17:38:21.734Z,15.98
2017-10-10T17:40:49.345Z,10.90
2017-10-10T17:43:16.898Z,14.90
2017-10-10T17:45:44.434Z,18.37
2017-10-10T17:48:12.080Z,19.00
2017-10-10T17:50:39.650Z,11.80
2017-10-10T17:53:07.201Z,17.90
2017-10-10T17:55:34.779Z,15.67
2017-10-10T17:58:03.228Z,18.00
2017-10-10T18:00:31.538Z,19.20
2017-10-10T18:02:59.137Z,24.30
2017-10-10T18:05:26.685Z,20.83
2017-10-10T18:07:54.335Z,13.70
2017-10-10T18:10:22.107Z,9.90
2017-10-10T18:12:49.652Z,9.30
2017-10-10T18:15:17.288Z,10.83
2017-10-10T18:17:44.860Z,8.83
2017-10-10T18:20:12.400Z,8.03
2017-10-10T18:22:39.940Z,10.57
2017-10-10T18:25:07.500Z,12.32
2017-10-10T18:27:35.035Z,14.00
2017-10-10T18:30:02.587Z,16.37
2017-10-10T18:32:30.208Z,10.10
2017-10-10T18:34:57.751Z,15.50
2017-10-10T18:37:25.304Z,18.73
2017-10-10T18:39:53.636Z,14.77
2017-10-10T18:42:21.222Z,16.15
2017-10-10T18:44:48.755Z,12.53
2017-10-10T18:47:16.436Z,9.00
2017-10-10T18:49:43.977Z,22.50
2017-10-10T18:52:11.515Z,14.60
2017-10-10T18:54:40.287Z,18.10
2017-10-10T18:57:08.021Z,26.83
2017-10-10T18:59:35.703Z,17.40
2017-10-10T19:02:04.050Z,25.40
2017-10-10T19:04:31.640Z,11.20
2017-10-10T19:07:00.077Z,19.33
2017-10-10T19:09:27.646Z,18.83
2017-10-10T19:11:55.175Z,16.03
2017-10-10T19:14:22.703Z,11.45
2017-10-10T19:16:51.235Z,7.50
2017-10-10T19:19:18.828Z,12.93
2017-10-10T19:21:46.354Z,12.77
2017-10-10T19:24:25.445Z,10.75
2017-10-10T19:29:57.592Z,9.60
2017-10-10T19:32:25.191Z,11.87
2017-10-10T19:34:52.730Z,17.93
2017-10-10T19:37:21.151Z,14.93
2017-10-10T19:39:49.129Z,18.53
2017-10-10T19:42:16.740Z,15.13
2017-10-10T19:44:44.359Z,15.67
2017-10-10T19:47:11.964Z,20.27
2017-10-10T19:49:39.495Z,10.77
2017-10-10T19:52:07.052Z,11.93
2017-10-10T19:54:34.604Z,11.80
2017-10-10T19:57:02.260Z,9.17
2017-10-10T19:59:29.911Z,12.40
2017-10-10T20:01:57.503Z,13.82
2017-10-10T20:04:25.052Z,12.43
2017-10-10T20:06:52.611Z,13.47
2017-10-10T20:09:20.203Z,10.52
2017-10-10T20:11:48.576Z,10.03
2017-10-10T20:14:17.283Z,11.60
2017-10-10T20:16:45.643Z,15.07
2017-10-10T20:19:32.427Z,16.05
2017-10-10T20:25:17.167Z,12.50
2017-10-10T20:27:44.699Z,11.30
2017-10-10T20:30:12.283Z,11.40
2017-10-10T20:32:39.856Z,11.77
2017-10-10T20:35:07.391Z,11.90
2017-10-10T20:37:35.691Z,13.67
2017-10-10T20:40:03.704Z,12.67
2017-10-10T20:42:31.301Z,13.47
2017-10-10T20:44:59.642Z,12.53
2017-10-10T20:47:27.244Z,14.27
2017-10-10T20:49:54.976Z,12.93
2017-10-10T20:52:22.602Z,12.52
2017-10-10T20:54:50.995Z,14.23
2017-10-10T20:57:18.532Z,14.57
2017-10-10T20:59:46.079Z,14.20
2017-10-10T21:02:24.572Z,16.40
2017-10-10T21:07:46.152Z,14.53
2017-10-10T21:10:25.924Z,13.27
2017-10-10T21:17:57.330Z,12.97
2017-10-10T21:20:24.860Z,11.70
2017-10-10T21:22:52.479Z,13.00
2017-10-10T21:25:20.119Z,12.20
2017-10-10T21:27:47.690Z,11.37
2017-10-10T21:30:16.476Z,11.93
2017-10-10T21:32:44.815Z,16.70
2017-10-10T21:35:12.446Z,14.70
2017-10-10T21:37:40.001Z,13.00
2017-10-10T21:40:07.980Z,13.10
2017-10-10T21:42:35.650Z,11.23
2017-10-10T21:45:03.223Z,13.10
2017-10-10T21:47:30.799Z,11.13
2017-10-10T21:49:58.335Z,11.77
2017-10-10T21:52:25.981Z,13.05
2017-10-10T21:54:53.548Z,12.13
2017-10-10T21:57:21.110Z,12.23
2017-10-10T21:59:48.708Z,11.23
2017-10-10T22:02:17.295Z,11.18
2017-10-10T22:04:44.855Z,9.80
2017-10-10T22:07:12.387Z,9.63
2017-10-10T22:09:40.060Z,12.00
2017-10-10T22:12:07.715Z,10.33
2017-10-10T22:14:35.264Z,11.93
2017-10-10T22:17:02.871Z,17.10
2017-10-10T22:19:30.532Z,13.20
2017-10-10T22:21:58.071Z,16.33
2017-10-10T22:24:26.440Z,10.17
2017-10-10T22:26:53.988Z,11.97
2017-10-10T22:29:21.637Z,9.93
2017-10-10T22:31:49.223Z,14.87
2017-10-10T22:34:16.819Z,10.17
2017-10-10T22:36:44.375Z,9.50
2017-10-10T22:39:11.960Z,8.57
2017-10-10T22:41:40.018Z,9.05
2017-10-10T22:44:08.307Z,9.07
2017-10-10T22:46:35.975Z,11.23
2017-10-10T22:49:03.600Z,7.82
2017-10-10T22:51:31.280Z,11.13
2017-10-10T22:53:59.612Z,8.37
2017-10-10T22:56:27.139Z,9.63
2017-10-10T22:58:54.730Z,8.87
2017-10-10T23:01:22.342Z,15.13
2017-10-10T23:03:50.667Z,8.50
2017-10-10T23:06:18.195Z,9.37
2017-10-10T23:08:45.775Z,8.53
2017-10-10T23:11:30.520Z,10.65
2017-10-10T23:26:17.066Z,9.37
2017-10-10T23:28:45.467Z,9.67
2017-10-10T23:31:25.456Z,9.43
2017-10-10T23:42:08.899Z,8.98
2017-10-10T23:44:36.431Z,8.52
2017-10-10T23:47:03.988Z,8.90
2017-10-10T23:49:31.739Z,12.02
2017-10-10T23:52:00.040Z,8.93
2017-10-10T23:54:27.595Z,8.65
2017-10-10T23:56:55.151Z,7.97
2017-10-10T23:59:22.716Z,8.40
